createdAt,value
2017-06-04T00:02:21.755Z,6.73
2017-06-04T00:04:54.683Z,6.43
2017-06-04T00:07:27.501Z,6.40
2017-06-04T00:10:00.637Z,6.83
2017-06-04T00:12:33.251Z,7.03
2017-06-04T00:15:06.233Z,6.60
2017-06-04T00:17:39.183Z,6.47
2017-06-04T00:20:12.376Z,6.57
2017-06-04T00:22:45.407Z,6.50
2017-06-04T00:25:18.399Z,5.40
2017-06-04T00:27:51.411Z,6.87
2017-06-04T00:30:21.469Z,6.80
2017-06-04T00:32:54.291Z,5.87
2017-06-04T00:35:27.079Z,7.10
2017-06-04T00:37:59.971Z,6.13
2017-06-04T00:40:33.084Z,5.70
2017-06-04T00:43:05.820Z,6.13
2017-06-04T00:45:38.645Z,7.10
2017-06-04T00:48:11.766Z,5.80
2017-06-04T00:50:44.804Z,4.57
2017-06-04T00:53:17.975Z,5.47
2017-06-04T00:55:50.891Z,4.57
2017-06-04T00:58:23.591Z,5.23
2017-06-04T01:00:56.635Z,5.53
2017-06-04T01:03:29.391Z,5.63
2017-06-04T01:06:02.123Z,4.93
2017-06-04T01:08:35.123Z,5.50
2017-06-04T01:11:07.988Z,5.20
2017-06-04T01:13:40.887Z,5.60
2017-06-04T01:16:13.984Z,5.47
2017-06-04T01:18:46.811Z,5.17
2017-06-04T01:21:19.727Z,5.97
2017-06-04T01:23:52.775Z,5.37
2017-06-04T01:26:25.719Z,5.23
2017-06-04T01:28:58.736Z,5.30
2017-06-04T01:31:32.018Z,5.40
2017-06-04T01:34:04.536Z,5.73
2017-06-04T01:36:37.693Z,5.87
2017-06-04T01:39:10.612Z,4.70
2017-06-04T01:41:42.819Z,5.73
2017-06-04T01:44:15.647Z,5.30
2017-06-04T01:46:48.547Z,5.07
2017-06-04T01:49:21.475Z,5.60
2017-06-04T01:51:54.359Z,5.80
2017-06-04T01:54:27.371Z,5.30
2017-06-04T01:57:00.100Z,5.90
2017-06-04T01:59:33.003Z,5.60
2017-06-04T02:02:05.743Z,6.70
2017-06-04T02:04:38.583Z,7.53
2017-06-04T02:07:11.491Z,7.50
2017-06-04T02:09:44.372Z,7.60
2017-06-04T02:12:17.511Z,9.33
2017-06-04T02:14:50.583Z,9.13
2017-06-04T02:17:23.539Z,7.30
2017-06-04T02:19:55.900Z,8.97
2017-06-04T02:22:28.871Z,8.60
2017-06-04T02:25:02.036Z,7.33
2017-06-04T02:27:34.659Z,8.00
2017-06-04T02:30:07.465Z,7.87
2017-06-04T02:32:40.480Z,8.00
2017-06-04T02:35:13.396Z,7.30
2017-06-04T02:37:53.159Z,9.30
2017-06-04T02:40:26.289Z,8.60
2017-06-04T02:42:59.144Z,9.10
2017-06-04T02:45:32.027Z,9.70
2017-06-04T02:48:04.791Z,12.00
2017-06-04T02:50:37.911Z,10.57
2017-06-04T02:53:10.558Z,10.17
2017-06-04T02:55:43.579Z,9.97
2017-06-04T02:58:15.783Z,11.77
2017-06-04T03:00:48.747Z,10.80
2017-06-04T03:03:21.696Z,11.80
2017-06-04T03:05:54.796Z,12.07
2017-06-04T03:08:27.856Z,12.30
2017-06-04T03:11:00.634Z,13.10
2017-06-04T03:13:33.551Z,13.00
2017-06-04T03:16:06.162Z,12.00
2017-06-04T03:18:39.219Z,12.90
2017-06-04T03:21:11.999Z,10.93
2017-06-04T03:23:45.071Z,10.37
2017-06-04T03:26:17.993Z,11.63
2017-06-04T03:28:51.143Z,9.67
2017-06-04T03:31:23.887Z,9.50
2017-06-04T03:33:56.875Z,8.90
2017-06-04T03:36:29.764Z,9.73
2017-06-04T03:39:02.739Z,7.20
2017-06-04T03:41:35.704Z,8.27
2017-06-04T03:44:08.836Z,8.20
2017-06-04T03:46:41.631Z,7.00
2017-06-04T03:49:14.657Z,7.67
2017-06-04T03:51:47.604Z,8.73
2017-06-04T03:54:20.632Z,8.07
2017-06-04T03:56:53.340Z,6.50
2017-06-04T03:59:26.352Z,5.93
2017-06-04T04:01:59.176Z,6.07
2017-06-04T04:04:32.191Z,6.27
2017-06-04T04:07:05.230Z,4.50
2017-06-04T04:09:38.316Z,4.50
2017-06-04T04:12:11.018Z,4.60
2017-06-04T04:14:43.863Z,4.20
2017-06-04T04:17:13.321Z,4.97
2017-06-04T04:19:46.103Z,3.67
2017-06-04T04:22:19.035Z,3.90
2017-06-04T04:24:52.215Z,2.70
2017-06-04T04:27:25.262Z,2.80
2017-06-04T04:29:58.348Z,2.60
2017-06-04T04:32:31.573Z,2.73
2017-06-04T04:35:03.919Z,2.83
2017-06-04T04:37:36.807Z,3.03
2017-06-04T04:40:09.755Z,2.93
2017-06-04T04:42:42.879Z,2.70
2017-06-04T04:45:15.894Z,2.27
2017-06-04T04:47:48.817Z,3.47
2017-06-04T04:50:21.870Z,3.07
2017-06-04T04:52:54.793Z,2.83
2017-06-04T04:55:27.629Z,3.40
2017-06-04T04:58:00.448Z,3.60
2017-06-04T05:00:33.301Z,3.30
2017-06-04T05:03:06.228Z,3.33
2017-06-04T05:05:39.239Z,3.30
2017-06-04T05:08:12.223Z,2.73
2017-06-04T05:10:45.147Z,2.80
2017-06-04T05:13:17.343Z,3.73
2017-06-04T05:15:49.995Z,3.20
2017-06-04T05:18:22.272Z,2.90
2017-06-04T05:20:55.180Z,3.83
2017-06-04T05:23:28.223Z,4.00
2017-06-04T05:26:11.902Z,4.13
2017-06-04T05:28:50.283Z,3.80
2017-06-04T05:31:23.263Z,4.57
2017-06-04T05:33:56.033Z,4.20
2017-06-04T05:36:28.967Z,4.70
2017-06-04T05:39:06.011Z,4.57
2017-06-04T05:41:39.067Z,4.17
2017-06-04T05:44:11.951Z,4.50
2017-06-04T05:46:44.860Z,4.57
2017-06-04T05:49:17.540Z,4.30
2017-06-04T05:51:50.353Z,3.93
2017-06-04T05:54:23.120Z,4.40
2017-06-04T05:56:56.083Z,5.20
2017-06-04T05:59:28.955Z,5.00
2017-06-04T06:02:01.815Z,4.80
2017-06-04T06:04:34.096Z,5.17
2017-06-04T06:07:06.959Z,5.70
2017-06-04T06:09:39.819Z,5.87
2017-06-04T06:12:12.847Z,6.50
2017-06-04T06:14:45.827Z,5.43
2017-06-04T06:17:18.855Z,5.47
2017-06-04T06:19:51.564Z,5.43
2017-06-04T06:22:24.535Z,6.30
2017-06-04T06:24:57.436Z,6.40
2017-06-04T06:27:30.171Z,5.43
2017-06-04T06:30:03.140Z,4.83
2017-06-04T06:32:36.111Z,5.60
2017-06-04T06:35:09.200Z,5.30
2017-06-04T06:37:42.251Z,4.73
2017-06-04T06:40:15.363Z,5.67
2017-06-04T06:42:48.395Z,6.20
2017-06-04T06:45:21.347Z,5.30
2017-06-04T06:47:54.315Z,6.20
2017-06-04T06:50:27.020Z,5.40
2017-06-04T06:53:00.263Z,4.80
2017-06-04T06:55:32.879Z,5.17
2017-06-04T06:58:05.795Z,4.77
2017-06-04T07:00:38.763Z,4.53
2017-06-04T07:03:11.927Z,4.27
2017-06-04T07:05:44.567Z,4.20
2017-06-04T07:08:17.488Z,4.60
2017-06-04T07:10:50.373Z,4.27
2017-06-04T07:13:23.255Z,4.20
2017-06-04T07:15:56.163Z,4.10
2017-06-04T07:18:29.159Z,4.70
2017-06-04T07:21:03.133Z,4.40
2017-06-04T07:23:36.119Z,3.87
2017-06-04T07:26:09.047Z,4.73
2017-06-04T07:28:41.947Z,5.23
2017-06-04T07:31:14.819Z,16.90
2017-06-04T07:33:47.808Z,5.13
2017-06-04T07:36:20.955Z,4.70
2017-06-04T07:38:53.960Z,4.33
2017-06-04T07:41:26.923Z,5.72
2017-06-04T07:43:59.834Z,5.50
2017-06-04T07:46:32.856Z,6.67
2017-06-04T07:49:05.792Z,5.10
2017-06-04T07:51:38.591Z,6.13
2017-06-04T07:54:11.775Z,6.37
2017-06-04T07:56:44.607Z,7.53
2017-06-04T07:59:17.494Z,6.20
2017-06-04T08:01:50.080Z,7.50
2017-06-04T08:04:23.076Z,6.83
2017-06-04T08:06:56.118Z,6.17
2017-06-04T08:09:28.947Z,7.17
2017-06-04T08:12:02.067Z,6.23
2017-06-04T08:14:34.856Z,6.37
2017-06-04T08:17:07.457Z,6.70
2017-06-04T08:19:40.619Z,6.40
2017-06-04T08:22:13.360Z,6.27
2017-06-04T08:24:46.081Z,7.10
2017-06-04T08:27:18.883Z,5.40
2017-06-04T08:29:51.963Z,5.97
2017-06-04T08:32:25.075Z,7.03
2017-06-04T08:34:58.016Z,6.47
2017-06-04T08:37:30.875Z,6.93
2017-06-04T08:40:03.898Z,5.37
2017-06-04T08:42:36.675Z,6.50
2017-06-04T08:45:09.596Z,7.00
2017-06-04T08:47:42.639Z,6.60
2017-06-04T08:50:15.816Z,5.97
2017-06-04T08:52:48.798Z,5.93
2017-06-04T08:55:21.804Z,6.57
2017-06-04T08:57:51.747Z,7.00
2017-06-04T09:00:24.503Z,6.30
2017-06-04T09:02:57.351Z,6.43
2017-06-04T09:05:30.259Z,7.20
2017-06-04T09:08:03.208Z,7.20
2017-06-04T09:10:36.142Z,7.80
2017-06-04T09:13:09.020Z,7.93
2017-06-04T09:15:41.980Z,6.83
2017-06-04T09:18:15.003Z,6.43
2017-06-04T09:20:47.684Z,6.80
2017-06-04T09:23:20.561Z,7.60
2017-06-04T09:25:53.419Z,7.20
2017-06-04T09:28:26.311Z,7.90
2017-06-04T09:30:59.083Z,24.67
2017-06-04T09:33:28.517Z,20.03
2017-06-04T09:36:01.745Z,6.80
2017-06-04T09:38:34.279Z,6.13
2017-06-04T09:41:07.023Z,6.73
2017-06-04T09:43:37.199Z,5.87
2017-06-04T09:46:06.882Z,5.10
2017-06-04T09:48:39.423Z,4.80
2017-06-04T09:51:12.559Z,4.13
2017-06-04T09:53:45.584Z,5.27
2017-06-04T09:56:18.336Z,3.93
2017-06-04T09:58:52.243Z,4.13
2017-06-04T10:01:25.199Z,4.67
2017-06-04T10:03:55.315Z,4.73
2017-06-04T10:06:28.055Z,4.63
2017-06-04T10:09:00.864Z,4.90
2017-06-04T10:11:33.715Z,3.80
2017-06-04T10:14:06.548Z,4.40
2017-06-04T10:16:39.315Z,4.00
2017-06-04T10:19:12.248Z,4.03
2017-06-04T10:21:45.323Z,3.90
2017-06-04T10:24:18.319Z,4.23
2017-06-04T10:26:51.051Z,3.97
2017-06-04T10:29:24.071Z,3.60
2017-06-04T10:31:57.019Z,3.90
2017-06-04T10:34:29.647Z,3.93
2017-06-04T10:37:02.819Z,3.60
2017-06-04T10:39:35.261Z,4.40
2017-06-04T10:42:08.179Z,3.80
2017-06-04T10:44:40.891Z,3.27
2017-06-04T10:47:13.836Z,4.27
2017-06-04T10:49:43.699Z,4.03
2017-06-04T10:52:16.103Z,3.83
2017-06-04T10:54:48.884Z,3.30
2017-06-04T10:57:21.907Z,3.83
2017-06-04T10:59:55.031Z,3.20
2017-06-04T11:02:27.953Z,2.70
2017-06-04T11:05:00.587Z,4.57
2017-06-04T11:07:33.327Z,3.10
2017-06-04T11:10:06.168Z,3.50
2017-06-04T11:12:39.107Z,3.03
2017-06-04T11:15:11.701Z,3.17
2017-06-04T11:17:44.555Z,3.40
2017-06-04T11:20:17.123Z,3.53
2017-06-04T11:22:50.266Z,2.60
2017-06-04T11:25:22.956Z,4.30
2017-06-04T11:27:55.944Z,5.20
2017-06-04T11:30:30.788Z,3.20
2017-06-04T11:33:03.556Z,3.40
2017-06-04T11:35:36.363Z,3.20
2017-06-04T11:38:09.387Z,2.63
2017-06-04T11:40:41.616Z,3.00
2017-06-04T11:43:14.479Z,2.87
2017-06-04T11:45:47.301Z,3.20
2017-06-04T11:48:20.284Z,3.07
2017-06-04T11:50:53.111Z,3.13
2017-06-04T11:53:26.215Z,3.07
2017-06-04T11:55:59.078Z,2.80
2017-06-04T11:58:32.215Z,2.50
2017-06-04T12:01:04.775Z,2.70
2017-06-04T12:03:37.715Z,2.23
2017-06-04T12:06:10.457Z,2.60
2017-06-04T12:08:43.335Z,3.00
2017-06-04T12:11:16.103Z,2.83
2017-06-04T12:13:49.141Z,2.70
2017-06-04T12:16:22.143Z,3.30
2017-06-04T12:18:55.384Z,2.10
2017-06-04T12:21:27.973Z,2.53
2017-06-04T12:24:00.803Z,3.20
2017-06-04T12:26:33.647Z,3.20
2017-06-04T12:29:06.584Z,2.70
2017-06-04T12:31:39.519Z,2.27
2017-06-04T12:34:12.432Z,2.60
2017-06-04T12:36:45.279Z,9.43
2017-06-04T12:39:18.472Z,2.47
2017-06-04T12:41:51.161Z,2.50
2017-06-04T12:44:24.127Z,2.60
2017-06-04T12:46:56.851Z,2.83
2017-06-04T12:49:29.886Z,2.23
2017-06-04T12:52:02.819Z,3.07
2017-06-04T12:54:37.595Z,2.40
2017-06-04T12:57:10.415Z,2.30
2017-06-04T12:59:43.333Z,2.10
2017-06-04T13:02:16.536Z,2.30
2017-06-04T13:04:49.508Z,1.83
2017-06-04T13:07:22.839Z,2.17
2017-06-04T13:09:55.391Z,2.37
2017-06-04T13:12:28.308Z,2.40
2017-06-04T13:15:02.185Z,1.83
2017-06-04T13:17:35.283Z,2.20
2017-06-04T13:20:08.275Z,2.40
2017-06-04T13:22:41.188Z,2.47
2017-06-04T13:25:14.071Z,2.13
2017-06-04T13:27:46.867Z,1.67
2017-06-04T13:30:19.967Z,2.00
2017-06-04T13:32:52.888Z,2.37
2017-06-04T13:35:25.931Z,1.83
2017-06-04T13:37:58.895Z,1.33
2017-06-04T13:40:31.971Z,1.50
2017-06-04T13:43:04.649Z,1.60
2017-06-04T13:45:38.379Z,1.63
2017-06-04T13:48:11.171Z,2.40
2017-06-04T13:50:44.203Z,2.50
2017-06-04T13:53:16.968Z,2.80
2017-06-04T13:55:49.591Z,2.13
2017-06-04T13:58:22.750Z,2.10
2017-06-04T14:00:55.396Z,1.90
2017-06-04T14:03:28.364Z,2.17
2017-06-04T14:06:01.967Z,2.00
2017-06-04T14:08:35.028Z,2.00
2017-06-04T14:11:08.331Z,2.30
2017-06-04T14:13:40.943Z,2.43
2017-06-04T14:16:13.887Z,1.80
2017-06-04T14:18:47.059Z,1.90
2017-06-04T14:21:19.495Z,1.70
2017-06-04T14:23:52.603Z,1.83
2017-06-04T14:26:25.407Z,1.80
2017-06-04T14:28:58.427Z,2.27
2017-06-04T14:31:31.275Z,2.10
2017-06-04T14:34:05.064Z,1.60
2017-06-04T14:36:38.024Z,1.90
2017-06-04T14:39:10.739Z,2.17
2017-06-04T14:41:43.539Z,2.27
2017-06-04T14:44:16.384Z,2.40
2017-06-04T14:46:49.511Z,4.00
2017-06-04T14:49:19.487Z,2.30
2017-06-04T14:51:52.432Z,2.33
2017-06-04T14:54:25.467Z,2.23
2017-06-04T14:56:58.371Z,2.00
2017-06-04T14:59:31.213Z,2.37
2017-06-04T15:02:04.090Z,2.50
2017-06-04T15:04:37.561Z,2.00
2017-06-04T15:07:10.152Z,3.10
2017-06-04T15:09:42.966Z,1.83
2017-06-04T15:12:16.015Z,1.80
2017-06-04T15:14:48.699Z,2.17
2017-06-04T15:17:21.776Z,1.70
2017-06-04T15:19:54.780Z,1.87
2017-06-04T15:22:27.920Z,2.20
2017-06-04T15:25:00.883Z,1.70
2017-06-04T15:27:34.103Z,2.03
2017-06-04T15:30:07.428Z,1.90
2017-06-04T15:32:39.735Z,2.37
2017-06-04T15:35:12.854Z,2.13
2017-06-04T15:37:46.335Z,1.70
2017-06-04T15:40:19.755Z,1.90
2017-06-04T15:42:52.841Z,1.87
2017-06-04T15:45:25.463Z,1.60
2017-06-04T15:47:58.279Z,1.63
2017-06-04T15:50:31.207Z,2.03
2017-06-04T15:53:03.959Z,2.13
2017-06-04T15:55:36.691Z,1.30
2017-06-04T15:58:09.564Z,2.10
2017-06-04T16:00:42.346Z,2.47
2017-06-04T16:03:15.377Z,1.77
2017-06-04T16:05:48.170Z,1.93
2017-06-04T16:08:20.937Z,1.87
2017-06-04T16:10:53.975Z,1.60
2017-06-04T16:13:26.968Z,2.10
2017-06-04T16:16:00.083Z,1.60
2017-06-04T16:18:32.987Z,1.73
2017-06-04T16:21:05.879Z,1.30
2017-06-04T16:23:38.831Z,2.00
2017-06-04T16:26:11.692Z,1.87
2017-06-04T16:28:44.723Z,1.90
2017-06-04T16:31:16.955Z,1.60
2017-06-04T16:33:49.915Z,2.07
2017-06-04T16:36:22.847Z,1.53
2017-06-04T16:38:55.819Z,1.60
2017-06-04T16:41:28.884Z,2.30
2017-06-04T16:44:02.263Z,1.50
2017-06-04T16:46:34.743Z,1.70
2017-06-04T16:49:07.847Z,1.43
2017-06-04T16:51:38.003Z,1.60
2017-06-04T16:54:10.403Z,2.10
2017-06-04T16:56:44.283Z,1.87
2017-06-04T16:59:17.443Z,1.73
2017-06-04T17:01:50.583Z,1.50
2017-06-04T17:04:23.571Z,1.50
2017-06-04T17:06:56.456Z,1.50
2017-06-04T17:09:29.148Z,1.50
2017-06-04T17:12:02.015Z,2.00
2017-06-04T17:14:34.916Z,1.87
2017-06-04T17:17:08.511Z,1.57
2017-06-04T17:19:40.931Z,1.90
2017-06-04T17:22:13.792Z,2.10
2017-06-04T17:24:46.640Z,1.70
2017-06-04T17:27:16.989Z,2.07
2017-06-04T17:29:49.559Z,2.10
2017-06-04T17:32:22.015Z,1.90
2017-06-04T17:34:54.495Z,1.90
2017-06-04T17:37:27.407Z,2.03
2017-06-04T17:40:00.355Z,1.77
2017-06-04T17:42:33.359Z,1.53
2017-06-04T17:45:06.552Z,1.80
2017-06-04T17:47:39.543Z,1.90
2017-06-04T17:50:12.663Z,2.00
2017-06-04T17:52:45.439Z,2.30
2017-06-04T17:55:18.366Z,2.30
2017-06-04T17:57:51.411Z,3.00
2017-06-04T18:00:24.492Z,3.17
2017-06-04T18:02:57.117Z,2.63
2017-06-04T18:05:30.073Z,2.53
2017-06-04T18:08:02.935Z,3.07
2017-06-04T18:10:35.924Z,2.70
2017-06-04T18:13:08.441Z,3.20
2017-06-04T18:15:41.511Z,3.17
2017-06-04T18:18:14.307Z,3.40
2017-06-04T18:20:47.403Z,2.97
2017-06-04T18:23:19.640Z,3.00
2017-06-04T18:25:52.755Z,2.80
2017-06-04T18:28:25.777Z,2.93
2017-06-04T18:30:58.699Z,3.13
2017-06-04T18:33:31.695Z,2.53
2017-06-04T18:36:04.636Z,4.20
2017-06-04T18:38:38.051Z,3.07
2017-06-04T18:41:08.021Z,3.40
2017-06-04T18:43:40.336Z,2.83
2017-06-04T18:46:13.478Z,3.00
2017-06-04T18:48:46.284Z,2.67
2017-06-04T18:51:19.443Z,2.70
2017-06-04T18:53:53.265Z,3.00
2017-06-04T18:56:25.951Z,14.60
2017-06-04T18:58:58.747Z,7.70
2017-06-04T19:01:31.575Z,3.70
2017-06-04T19:04:04.472Z,3.07
2017-06-04T19:06:37.444Z,3.17
2017-06-04T19:09:10.559Z,3.43
2017-06-04T19:11:43.616Z,2.90
2017-06-04T19:14:16.628Z,3.00
2017-06-04T19:16:49.753Z,2.50
2017-06-04T19:19:22.677Z,2.80
2017-06-04T19:21:55.334Z,2.73
2017-06-04T19:24:28.419Z,2.53
2017-06-04T19:27:01.348Z,3.20
2017-06-04T19:29:34.189Z,2.53
2017-06-04T19:32:07.752Z,3.00
2017-06-04T19:34:40.077Z,2.30
2017-06-04T19:37:13.100Z,2.47
2017-06-04T19:39:45.827Z,2.37
2017-06-04T19:42:18.748Z,2.60
2017-06-04T19:44:51.507Z,2.57
2017-06-04T19:47:24.449Z,2.47
2017-06-04T19:49:57.363Z,2.70
2017-06-04T19:52:29.881Z,2.23
2017-06-04T19:55:02.743Z,2.00
2017-06-04T19:57:35.752Z,2.50
2017-06-04T20:00:08.652Z,2.37
2017-06-04T20:02:43.529Z,14.13
2017-06-04T20:05:13.518Z,2.60
2017-06-04T20:07:46.495Z,2.40
2017-06-04T20:10:16.264Z,2.13
2017-06-04T20:12:48.948Z,2.73
2017-06-04T20:15:21.887Z,2.27
2017-06-04T20:17:52.364Z,2.30
2017-06-04T20:20:25.600Z,2.60
2017-06-04T20:22:58.238Z,2.67
2017-06-04T20:25:31.136Z,2.40
2017-06-04T20:28:04.233Z,2.30
2017-06-04T20:30:34.329Z,2.70
2017-06-04T20:33:04.473Z,2.90
2017-06-04T20:35:34.532Z,2.70
2017-06-04T20:38:08.093Z,2.03
2017-06-04T20:40:44.582Z,2.77
2017-06-04T20:43:17.331Z,2.57
2017-06-04T20:45:50.184Z,2.70
2017-06-04T20:48:23.266Z,2.87
2017-06-04T20:50:56.125Z,2.63
2017-06-04T20:53:29.600Z,2.60
2017-06-04T20:56:01.994Z,2.60
2017-06-04T20:58:34.864Z,2.20
2017-06-04T21:01:08.168Z,2.80
2017-06-04T21:03:40.799Z,2.77
2017-06-04T21:06:14.172Z,2.90
2017-06-04T21:08:46.914Z,2.97
2017-06-04T21:11:19.943Z,2.97
2017-06-04T21:13:52.724Z,3.60
2017-06-04T21:16:25.543Z,2.30
2017-06-04T21:18:58.444Z,3.00
2017-06-04T21:21:31.247Z,3.07
2017-06-04T21:24:04.108Z,3.17
2017-06-04T21:26:36.744Z,2.40
2017-06-04T21:29:09.915Z,3.70
2017-06-04T21:31:42.554Z,3.10
2017-06-04T21:34:15.611Z,2.80
2017-06-04T21:36:48.419Z,3.60
2017-06-04T21:39:21.376Z,2.60
2017-06-04T21:41:54.276Z,2.57
2017-06-04T21:44:27.067Z,3.30
2017-06-04T21:46:59.725Z,3.57
2017-06-04T21:49:32.064Z,3.57
2017-06-04T21:52:04.888Z,3.13
2017-06-04T21:54:38.095Z,3.50
2017-06-04T21:57:10.928Z,3.60
2017-06-04T21:59:43.840Z,3.67
2017-06-04T22:02:16.835Z,2.57
2017-06-04T22:04:51.834Z,3.57
2017-06-04T22:07:24.888Z,3.33
2017-06-04T22:09:57.631Z,4.20
2017-06-04T22:12:30.488Z,4.23
2017-06-04T22:15:03.368Z,3.13
2017-06-04T22:17:36.580Z,3.60
2017-06-04T22:20:09.244Z,3.90
2017-06-04T22:22:42.119Z,5.37
2017-06-04T22:25:15.119Z,4.10
2017-06-04T22:27:47.803Z,3.83
2017-06-04T22:30:20.527Z,4.17
2017-06-04T22:32:53.627Z,4.13
2017-06-04T22:35:26.661Z,4.70
2017-06-04T22:37:59.652Z,3.53
2017-06-04T22:40:32.659Z,4.50
2017-06-04T22:43:05.584Z,3.93
2017-06-04T22:45:38.432Z,4.83
2017-06-04T22:48:11.494Z,5.10
2017-06-04T22:50:44.365Z,5.73
2017-06-04T22:53:17.427Z,4.47
2017-06-04T22:55:50.243Z,4.30
2017-06-04T22:58:23.245Z,4.40
2017-06-04T23:00:56.267Z,5.00
2017-06-04T23:03:29.439Z,4.83
2017-06-04T23:06:02.268Z,4.90
2017-06-04T23:08:35.168Z,4.37
2017-06-04T23:11:07.964Z,3.90
2017-06-04T23:13:40.803Z,4.50
2017-06-04T23:16:15.843Z,4.70
2017-06-04T23:18:48.391Z,4.10
2017-06-04T23:21:21.233Z,5.10
2017-06-04T23:23:54.094Z,4.90
2017-06-04T23:26:26.942Z,5.17
2017-06-04T23:28:59.564Z,4.43
2017-06-04T23:31:32.595Z,5.27
2017-06-04T23:34:05.484Z,5.87
2017-06-04T23:36:38.584Z,5.60
2017-06-04T23:39:08.460Z,4.73
2017-06-04T23:41:41.135Z,5.03
2017-06-04T23:44:14.068Z,5.83
2017-06-04T23:46:46.735Z,4.80
2017-06-04T23:49:19.632Z,5.77
2017-06-04T23:51:52.429Z,5.80
2017-06-04T23:54:25.145Z,6.00
2017-06-04T23:56:55.236Z,5.87
2017-06-04T23:59:28.012Z,5.23
